sensor_id;sensor_type;location;lat;lon;timestamp;temperature;humidity
10433;DHT22;5263;48.680;9.004;2023-05-13T00:00:46;9.20;99.90
10433;DHT22;5263;48.680;9.004;2023-05-13T00:03:12;9.30;99.90
10433;DHT22;5263;48.680;9.004;2023-05-13T00:05:37;9.40;99.90
10433;DHT22;5263;48.680;9.004;2023-05-13T00:08:04;9.40;99.90
10433;DHT22;5263;48.680;9.004;2023-05-13T00:10:32;9.30;99.90
10433;DHT22;5263;48.680;9.004;2023-05-13T00:12:58;9.40;99.90
10433;DHT22;5263;48.680;9.004;2023-05-13T00:15:24;9.40;99.90
10433;DHT22;5263;48.680;9.004;2023-05-13T00:17:50;9.50;99.90
10433;DHT22;5263;48.680;9.004;2023-05-13T00:20:15;9.60;99.90
10433;DHT22;5263;48.680;9.004;2023-05-13T00:22:41;9.50;99.90
10433;DHT22;5263;48.680;9.004;2023-05-13T00:25:07;9.40;99.90
10433;DHT22;5263;48.680;9.004;2023-05-13T00:27:33;9.40;99.90
10433;DHT22;5263;48.680;9.004;2023-05-13T00:29:58;9.40;99.90
10433;DHT22;5263;48.680;9.004;2023-05-13T00:32:24;9.40;99.90
10433;DHT22;5263;48.680;9.004;2023-05-13T00:34:50;9.50;99.90
10433;DHT22;5263;48.680;9.004;2023-05-13T00:37:15;9.60;99.90
10433;DHT22;5263;48.680;9.004;2023-05-13T00:39:41;9.60;99.90
10433;DHT22;5263;48.680;9.004;2023-05-13T00:42:07;9.60;99.90
10433;DHT22;5263;48.680;9.004;2023-05-13T00:44:35;9.60;99.90
10433;DHT22;5263;48.680;9.004;2023-05-13T00:47:01;9.70;99.90
10433;DHT22;5263;48.680;9.004;2023-05-13T00:49:27;9.80;99.90
10433;DHT22;5263;48.680;9.004;2023-05-13T00:51:53;9.70;99.90
10433;DHT22;5263;48.680;9.004;2023-05-13T00:54:19;9.70;99.90
10433;DHT22;5263;48.680;9.004;2023-05-13T00:56:45;9.60;99.90
10433;DHT22;5263;48.680;9.004;2023-05-13T00:59:11;9.60;99.90
10433;DHT22;5263;48.680;9.004;2023-05-13T01:01:49;9.80;99.90
10433;DHT22;5263;48.680;9.004;2023-05-13T01:04:19;9.70;99.90
10433;DHT22;5263;48.680;9.004;2023-05-13T01:10:10;9.60;99.90
10433;DHT22;5263;48.680;9.004;2023-05-13T01:12:41;9.70;99.90
10433;DHT22;5263;48.680;9.004;2023-05-13T01:15:12;9.90;99.90
10433;DHT22;5263;48.680;9.004;2023-05-13T01:17:59;9.90;99.90
10433;DHT22;5263;48.680;9.004;2023-05-13T01:20:29;10.00;99.90
10433;DHT22;5263;48.680;9.004;2023-05-13T01:22:55;10.00;99.90
10433;DHT22;5263;48.680;9.004;2023-05-13T01:25:22;10.20;99.90
10433;DHT22;5263;48.680;9.004;2023-05-13T01:27:48;10.20;99.90
10433;DHT22;5263;48.680;9.004;2023-05-13T01:30:14;10.10;99.90
10433;DHT22;5263;48.680;9.004;2023-05-13T01:32:40;10.30;99.90
10433;DHT22;5263;48.680;9.004;2023-05-13T01:35:08;10.30;99.90
10433;DHT22;5263;48.680;9.004;2023-05-13T01:37:35;10.30;99.90
10433;DHT22;5263;48.680;9.004;2023-05-13T01:40:02;10.30;99.90
10433;DHT22;5263;48.680;9.004;2023-05-13T01:42:28;10.20;99.90
10433;DHT22;5263;48.680;9.004;2023-05-13T01:44:54;10.20;99.90
10433;DHT22;5263;48.680;9.004;2023-05-13T01:47:20;10.30;99.90
10433;DHT22;5263;48.680;9.004;2023-05-13T01:49:45;10.20;99.90
10433;DHT22;5263;48.680;9.004;2023-05-13T01:52:11;10.20;99.90
10433;DHT22;5263;48.680;9.004;2023-05-13T01:54:36;10.20;99.90
10433;DHT22;5263;48.680;9.004;2023-05-13T01:57:02;10.10;99.90
10433;DHT22;5263;48.680;9.004;2023-05-13T01:59:28;10.20;99.90
10433;DHT22;5263;48.680;9.004;2023-05-13T02:01:54;10.20;99.90
10433;DHT22;5263;48.680;9.004;2023-05-13T02:04:20;10.20;99.90
10433;DHT22;5263;48.680;9.004;2023-05-13T02:07:00;10.20;99.90
10433;DHT22;5263;48.680;9.004;2023-05-13T02:09:26;9.90;99.90
10433;DHT22;5263;48.680;9.004;2023-05-13T02:11:51;9.80;99.90
10433;DHT22;5263;48.680;9.004;2023-05-13T02:14:17;9.70;99.90
10433;DHT22;5263;48.680;9.004;2023-05-13T02:16:42;9.60;99.90
10433;DHT22;5263;48.680;9.004;2023-05-13T02:19:08;9.50;99.90
10433;DHT22;5263;48.680;9.004;2023-05-13T02:21:34;9.60;99.90
10433;DHT22;5263;48.680;9.004;2023-05-13T02:23:59;9.60;99.90
10433;DHT22;5263;48.680;9.004;2023-05-13T02:26:25;9.70;99.90
10433;DHT22;5263;48.680;9.004;2023-05-13T02:28:51;9.80;99.90
10433;DHT22;5263;48.680;9.004;2023-05-13T02:31:16;9.80;99.90
10433;DHT22;5263;48.680;9.004;2023-05-13T02:33:42;9.60;99.90
10433;DHT22;5263;48.680;9.004;2023-05-13T02:36:08;9.50;99.90
10433;DHT22;5263;48.680;9.004;2023-05-13T02:38:33;9.40;99.90
10433;DHT22;5263;48.680;9.004;2023-05-13T02:40:59;9.40;99.90
10433;DHT22;5263;48.680;9.004;2023-05-13T02:43:26;9.40;99.90
10433;DHT22;5263;48.680;9.004;2023-05-13T02:45:52;9.30;99.90
10433;DHT22;5263;48.680;9.004;2023-05-13T02:48:18;9.30;99.90
10433;DHT22;5263;48.680;9.004;2023-05-13T02:50:43;9.40;99.90
10433;DHT22;5263;48.680;9.004;2023-05-13T02:53:09;9.40;99.90
10433;DHT22;5263;48.680;9.004;2023-05-13T02:55:35;9.50;99.90
10433;DHT22;5263;48.680;9.004;2023-05-13T02:58:01;9.40;99.90
10433;DHT22;5263;48.680;9.004;2023-05-13T03:00:26;9.30;99.90
10433;DHT22;5263;48.680;9.004;2023-05-13T03:02:52;9.30;99.90
10433;DHT22;5263;48.680;9.004;2023-05-13T03:05:18;9.30;99.90
10433;DHT22;5263;48.680;9.004;2023-05-13T03:07:43;9.40;99.90
10433;DHT22;5263;48.680;9.004;2023-05-13T03:10:09;9.40;99.90
10433;DHT22;5263;48.680;9.004;2023-05-13T03:12:35;9.30;99.90
10433;DHT22;5263;48.680;9.004;2023-05-13T03:15:01;9.10;99.90
10433;DHT22;5263;48.680;9.004;2023-05-13T03:17:26;9.30;99.90
10433;DHT22;5263;48.680;9.004;2023-05-13T03:19:55;9.30;99.90
10433;DHT22;5263;48.680;9.004;2023-05-13T03:22:20;9.30;99.90
10433;DHT22;5263;48.680;9.004;2023-05-13T03:24:46;9.40;99.90
10433;DHT22;5263;48.680;9.004;2023-05-13T03:27:11;9.30;99.90
10433;DHT22;5263;48.680;9.004;2023-05-13T03:29:37;9.60;99.90
10433;DHT22;5263;48.680;9.004;2023-05-13T03:32:03;9.40;99.90
10433;DHT22;5263;48.680;9.004;2023-05-13T03:34:31;9.40;99.90
10433;DHT22;5263;48.680;9.004;2023-05-13T03:36:56;9.50;99.90
10433;DHT22;5263;48.680;9.004;2023-05-13T03:39:22;9.50;99.90
10433;DHT22;5263;48.680;9.004;2023-05-13T03:41:48;9.70;99.90
10433;DHT22;5263;48.680;9.004;2023-05-13T03:44:13;9.80;99.90
10433;DHT22;5263;48.680;9.004;2023-05-13T03:46:39;9.80;99.90
10433;DHT22;5263;48.680;9.004;2023-05-13T03:49:04;9.60;99.90
10433;DHT22;5263;48.680;9.004;2023-05-13T03:51:30;9.50;99.90
10433;DHT22;5263;48.680;9.004;2023-05-13T03:53:57;9.30;99.90
10433;DHT22;5263;48.680;9.004;2023-05-13T03:56:22;9.30;99.90
10433;DHT22;5263;48.680;9.004;2023-05-13T03:58:48;9.30;99.90
10433;DHT22;5263;48.680;9.004;2023-05-13T04:01:13;9.30;99.90
10433;DHT22;5263;48.680;9.004;2023-05-13T04:03:39;9.20;99.90
10433;DHT22;5263;48.680;9.004;2023-05-13T04:06:07;9.10;99.90
10433;DHT22;5263;48.680;9.004;2023-05-13T04:08:32;9.10;99.90
10433;DHT22;5263;48.680;9.004;2023-05-13T04:10:58;9.20;99.90
10433;DHT22;5263;48.680;9.004;2023-05-13T04:13:24;9.20;99.90
10433;DHT22;5263;48.680;9.004;2023-05-13T04:15:49;9.10;99.90
10433;DHT22;5263;48.680;9.004;2023-05-13T04:18:15;9.10;99.90
10433;DHT22;5263;48.680;9.004;2023-05-13T04:20:41;9.30;99.90
10433;DHT22;5263;48.680;9.004;2023-05-13T04:23:06;9.20;99.90
10433;DHT22;5263;48.680;9.004;2023-05-13T04:25:34;9.30;99.90
10433;DHT22;5263;48.680;9.004;2023-05-13T04:27:59;9.30;99.90
10433;DHT22;5263;48.680;9.004;2023-05-13T04:30:25;9.30;99.90
10433;DHT22;5263;48.680;9.004;2023-05-13T04:32:50;9.20;99.90
10433;DHT22;5263;48.680;9.004;2023-05-13T04:35:16;9.30;99.90
10433;DHT22;5263;48.680;9.004;2023-05-13T04:37:42;9.30;99.90
10433;DHT22;5263;48.680;9.004;2023-05-13T04:40:08;9.30;99.90
10433;DHT22;5263;48.680;9.004;2023-05-13T04:42:33;9.20;99.90
10433;DHT22;5263;48.680;9.004;2023-05-13T04:44:59;9.30;99.90
10433;DHT22;5263;48.680;9.004;2023-05-13T04:47:25;9.50;99.90
10433;DHT22;5263;48.680;9.004;2023-05-13T04:49:50;9.40;99.90
10433;DHT22;5263;48.680;9.004;2023-05-13T04:52:16;9.30;99.90
10433;DHT22;5263;48.680;9.004;2023-05-13T04:54:42;9.60;99.90
10433;DHT22;5263;48.680;9.004;2023-05-13T04:57:08;9.50;99.90
10433;DHT22;5263;48.680;9.004;2023-05-13T04:59:34;9.60;99.90
10433;DHT22;5263;48.680;9.004;2023-05-13T05:01:59;9.70;99.90
10433;DHT22;5263;48.680;9.004;2023-05-13T05:04:26;9.60;99.90
10433;DHT22;5263;48.680;9.004;2023-05-13T05:06:52;9.60;99.90
10433;DHT22;5263;48.680;9.004;2023-05-13T05:09:18;9.50;99.90
10433;DHT22;5263;48.680;9.004;2023-05-13T05:11:44;9.80;99.90
10433;DHT22;5263;48.680;9.004;2023-05-13T05:14:09;9.50;99.90
10433;DHT22;5263;48.680;9.004;2023-05-13T05:16:35;9.40;99.90
10433;DHT22;5263;48.680;9.004;2023-05-13T05:19:00;9.40;99.90
10433;DHT22;5263;48.680;9.004;2023-05-13T05:21:26;9.60;99.90
10433;DHT22;5263;48.680;9.004;2023-05-13T05:23:51;9.70;99.90
10433;DHT22;5263;48.680;9.004;2023-05-13T05:26:17;9.90;99.90
10433;DHT22;5263;48.680;9.004;2023-05-13T05:28:44;9.70;99.90
10433;DHT22;5263;48.680;9.004;2023-05-13T05:31:09;9.50;99.90
10433;DHT22;5263;48.680;9.004;2023-05-13T05:33:35;9.60;99.90
10433;DHT22;5263;48.680;9.004;2023-05-13T05:36:01;9.60;99.90
10433;DHT22;5263;48.680;9.004;2023-05-13T05:38:27;9.70;99.90
10433;DHT22;5263;48.680;9.004;2023-05-13T05:40:52;9.90;99.90
10433;DHT22;5263;48.680;9.004;2023-05-13T05:43:18;9.90;99.90
10433;DHT22;5263;48.680;9.004;2023-05-13T05:45:44;9.70;99.90
10433;DHT22;5263;48.680;9.004;2023-05-13T05:48:10;9.80;99.90
10433;DHT22;5263;48.680;9.004;2023-05-13T05:50:36;9.70;99.90
10433;DHT22;5263;48.680;9.004;2023-05-13T05:53:02;9.80;99.90
10433;DHT22;5263;48.680;9.004;2023-05-13T05:55:28;9.90;99.90
10433;DHT22;5263;48.680;9.004;2023-05-13T05:57:54;10.10;99.90
10433;DHT22;5263;48.680;9.004;2023-05-13T06:00:20;10.20;99.90
10433;DHT22;5263;48.680;9.004;2023-05-13T06:02:46;10.30;99.90
10433;DHT22;5263;48.680;9.004;2023-05-13T06:05:13;10.20;99.90
10433;DHT22;5263;48.680;9.004;2023-05-13T06:07:38;10.30;99.90
10433;DHT22;5263;48.680;9.004;2023-05-13T06:10:05;10.60;99.90
10433;DHT22;5263;48.680;9.004;2023-05-13T06:12:30;10.70;99.90
10433;DHT22;5263;48.680;9.004;2023-05-13T06:14:57;10.70;99.90
10433;DHT22;5263;48.680;9.004;2023-05-13T06:17:23;10.30;99.90
10433;DHT22;5263;48.680;9.004;2023-05-13T06:19:48;10.60;99.90
10433;DHT22;5263;48.680;9.004;2023-05-13T06:22:14;10.50;99.90
10433;DHT22;5263;48.680;9.004;2023-05-13T06:24:40;10.50;99.90
10433;DHT22;5263;48.680;9.004;2023-05-13T06:27:09;10.60;99.90
10433;DHT22;5263;48.680;9.004;2023-05-13T06:29:35;10.80;99.90
10433;DHT22;5263;48.680;9.004;2023-05-13T06:32:01;10.70;99.90
10433;DHT22;5263;48.680;9.004;2023-05-13T06:34:26;10.50;99.90
10433;DHT22;5263;48.680;9.004;2023-05-13T06:36:52;10.80;99.90
10433;DHT22;5263;48.680;9.004;2023-05-13T06:39:18;10.60;99.90
10433;DHT22;5263;48.680;9.004;2023-05-13T06:41:44;10.80;99.90
10433;DHT22;5263;48.680;9.004;2023-05-13T06:44:09;10.80;99.90
10433;DHT22;5263;48.680;9.004;2023-05-13T06:46:35;10.70;99.90
10433;DHT22;5263;48.680;9.004;2023-05-13T06:49:01;11.00;99.90
10433;DHT22;5263;48.680;9.004;2023-05-13T06:51:26;10.90;99.90
10433;DHT22;5263;48.680;9.004;2023-05-13T06:53:54;10.90;99.90
10433;DHT22;5263;48.680;9.004;2023-05-13T06:56:20;11.10;99.90
10433;DHT22;5263;48.680;9.004;2023-05-13T06:58:48;11.10;99.90
10433;DHT22;5263;48.680;9.004;2023-05-13T07:01:15;11.40;99.90
10433;DHT22;5263;48.680;9.004;2023-05-13T07:03:41;11.30;99.90
10433;DHT22;5263;48.680;9.004;2023-05-13T07:06:07;11.40;99.90
10433;DHT22;5263;48.680;9.004;2023-05-13T07:08:33;11.40;99.90
10433;DHT22;5263;48.680;9.004;2023-05-13T07:10:58;11.60;99.90
10433;DHT22;5263;48.680;9.004;2023-05-13T07:13:24;11.60;99.90
10433;DHT22;5263;48.680;9.004;2023-05-13T07:15:49;11.80;99.90
10433;DHT22;5263;48.680;9.004;2023-05-13T07:18:15;11.50;99.90
10433;DHT22;5263;48.680;9.004;2023-05-13T07:20:41;11.30;99.90
10433;DHT22;5263;48.680;9.004;2023-05-13T07:23:06;11.40;99.90
10433;DHT22;5263;48.680;9.004;2023-05-13T07:25:32;11.40;99.90
10433;DHT22;5263;48.680;9.004;2023-05-13T07:27:58;11.60;99.90
10433;DHT22;5263;48.680;9.004;2023-05-13T07:30:23;11.50;99.90
10433;DHT22;5263;48.680;9.004;2023-05-13T07:32:49;11.50;99.90
10433;DHT22;5263;48.680;9.004;2023-05-13T07:35:15;11.70;99.90
10433;DHT22;5263;48.680;9.004;2023-05-13T07:37:42;11.90;99.90
10433;DHT22;5263;48.680;9.004;2023-05-13T07:40:08;12.10;99.90
10433;DHT22;5263;48.680;9.004;2023-05-13T07:42:34;12.70;99.90
10433;DHT22;5263;48.680;9.004;2023-05-13T07:45:00;12.70;99.90
10433;DHT22;5263;48.680;9.004;2023-05-13T07:47:26;12.60;99.90
10433;DHT22;5263;48.680;9.004;2023-05-13T07:49:53;12.80;99.90
10433;DHT22;5263;48.680;9.004;2023-05-13T07:52:19;13.20;99.90
10433;DHT22;5263;48.680;9.004;2023-05-13T07:54:44;13.40;99.90
10433;DHT22;5263;48.680;9.004;2023-05-13T07:57:10;13.10;99.90
10433;DHT22;5263;48.680;9.004;2023-05-13T07:59:36;13.40;99.90
10433;DHT22;5263;48.680;9.004;2023-05-13T08:02:01;13.30;99.90
10433;DHT22;5263;48.680;9.004;2023-05-13T08:04:27;13.30;99.90
10433;DHT22;5263;48.680;9.004;2023-05-13T08:06:52;13.70;99.90
10433;DHT22;5263;48.680;9.004;2023-05-13T08:09:18;13.70;99.90
10433;DHT22;5263;48.680;9.004;2023-05-13T08:11:44;13.30;99.90
10433;DHT22;5263;48.680;9.004;2023-05-13T08:14:09;13.40;99.90
10433;DHT22;5263;48.680;9.004;2023-05-13T08:16:35;13.40;99.90
10433;DHT22;5263;48.680;9.004;2023-05-13T08:19:01;13.50;99.90
10433;DHT22;5263;48.680;9.004;2023-05-13T08:21:27;13.40;99.90
10433;DHT22;5263;48.680;9.004;2023-05-13T08:23:53;13.10;99.90
10433;DHT22;5263;48.680;9.004;2023-05-13T08:26:19;13.40;99.90
10433;DHT22;5263;48.680;9.004;2023-05-13T08:28:45;13.40;99.90
10433;DHT22;5263;48.680;9.004;2023-05-13T08:31:11;13.70;99.90
10433;DHT22;5263;48.680;9.004;2023-05-13T08:33:37;13.40;99.90
10433;DHT22;5263;48.680;9.004;2023-05-13T08:36:04;13.70;99.90
10433;DHT22;5263;48.680;9.004;2023-05-13T08:38:30;14.00;99.90
10433;DHT22;5263;48.680;9.004;2023-05-13T08:40:58;14.10;99.90
10433;DHT22;5263;48.680;9.004;2023-05-13T08:43:26;14.30;99.90
10433;DHT22;5263;48.680;9.004;2023-05-13T08:45:53;14.20;99.90
10433;DHT22;5263;48.680;9.004;2023-05-13T08:48:21;13.80;99.90
10433;DHT22;5263;48.680;9.004;2023-05-13T08:50:48;13.80;99.90
10433;DHT22;5263;48.680;9.004;2023-05-13T08:53:16;13.90;99.90
10433;DHT22;5263;48.680;9.004;2023-05-13T08:55:42;13.80;99.90
10433;DHT22;5263;48.680;9.004;2023-05-13T08:58:08;13.40;99.90
10433;DHT22;5263;48.680;9.004;2023-05-13T09:00:34;13.10;99.90
10433;DHT22;5263;48.680;9.004;2023-05-13T09:03:00;13.00;99.90
10433;DHT22;5263;48.680;9.004;2023-05-13T09:05:25;13.00;99.90
10433;DHT22;5263;48.680;9.004;2023-05-13T09:07:52;12.90;99.90
10433;DHT22;5263;48.680;9.004;2023-05-13T09:10:19;13.10;99.90
10433;DHT22;5263;48.680;9.004;2023-05-13T09:12:46;13.00;99.90
10433;DHT22;5263;48.680;9.004;2023-05-13T09:15:18;12.60;99.90
10433;DHT22;5263;48.680;9.004;2023-05-13T09:17:48;13.00;99.90
10433;DHT22;5263;48.680;9.004;2023-05-13T09:20:15;12.70;99.90
10433;DHT22;5263;48.680;9.004;2023-05-13T09:22:52;12.70;99.90
10433;DHT22;5263;48.680;9.004;2023-05-13T09:25:19;12.70;99.90
10433;DHT22;5263;48.680;9.004;2023-05-13T09:27:48;12.80;99.90
10433;DHT22;5263;48.680;9.004;2023-05-13T09:30:14;12.80;99.90
10433;DHT22;5263;48.680;9.004;2023-05-13T09:32:40;13.00;99.90
10433;DHT22;5263;48.680;9.004;2023-05-13T09:35:14;12.90;99.90
10433;DHT22;5263;48.680;9.004;2023-05-13T09:37:44;12.80;99.90
10433;DHT22;5263;48.680;9.004;2023-05-13T09:40:12;12.60;99.90
10433;DHT22;5263;48.680;9.004;2023-05-13T09:42:42;12.50;99.90
10433;DHT22;5263;48.680;9.004;2023-05-13T09:45:09;12.40;99.90
10433;DHT22;5263;48.680;9.004;2023-05-13T09:47:35;12.50;99.90
10433;DHT22;5263;48.680;9.004;2023-05-13T09:50:02;12.50;99.90
10433;DHT22;5263;48.680;9.004;2023-05-13T09:52:33;12.30;99.90
10433;DHT22;5263;48.680;9.004;2023-05-13T09:54:58;12.60;99.90
10433;DHT22;5263;48.680;9.004;2023-05-13T09:57:27;12.20;99.90
10433;DHT22;5263;48.680;9.004;2023-05-13T10:00:01;12.10;99.90
10433;DHT22;5263;48.680;9.004;2023-05-13T10:02:27;12.40;99.90
10433;DHT22;5263;48.680;9.004;2023-05-13T10:04:53;12.40;99.90
10433;DHT22;5263;48.680;9.004;2023-05-13T10:07:23;12.60;99.90
10433;DHT22;5263;48.680;9.004;2023-05-13T10:09:57;12.80;99.90
10433;DHT22;5263;48.680;9.004;2023-05-13T10:12:26;12.70;99.90
10433;DHT22;5263;48.680;9.004;2023-05-13T10:14:53;13.10;99.90
10433;DHT22;5263;48.680;9.004;2023-05-13T10:17:21;13.20;99.90
10433;DHT22;5263;48.680;9.004;2023-05-13T10:19:48;13.40;99.90
10433;DHT22;5263;48.680;9.004;2023-05-13T10:22:18;13.50;99.90
10433;DHT22;5263;48.680;9.004;2023-05-13T10:24:46;13.30;99.90
10433;DHT22;5263;48.680;9.004;2023-05-13T10:27:13;13.20;99.90
10433;DHT22;5263;48.680;9.004;2023-05-13T10:29:39;13.20;99.90
10433;DHT22;5263;48.680;9.004;2023-05-13T10:32:07;13.00;99.90
10433;DHT22;5263;48.680;9.004;2023-05-13T10:34:33;12.80;99.90
10433;DHT22;5263;48.680;9.004;2023-05-13T10:43:08;12.80;99.90
10433;DHT22;5263;48.680;9.004;2023-05-13T10:45:34;12.90;99.90
10433;DHT22;5263;48.680;9.004;2023-05-13T10:48:07;13.10;99.90
10433;DHT22;5263;48.680;9.004;2023-05-13T10:50:36;13.50;99.90
10433;DHT22;5263;48.680;9.004;2023-05-13T10:53:17;14.20;99.90
10433;DHT22;5263;48.680;9.004;2023-05-13T10:55:43;14.70;99.90
10433;DHT22;5263;48.680;9.004;2023-05-13T10:58:13;14.90;99.90
10433;DHT22;5263;48.680;9.004;2023-05-13T11:00:41;14.60;99.90
10433;DHT22;5263;48.680;9.004;2023-05-13T11:03:25;14.50;99.90
10433;DHT22;5263;48.680;9.004;2023-05-13T11:06:16;14.40;99.90
10433;DHT22;5263;48.680;9.004;2023-05-13T11:08:47;13.60;99.90
10433;DHT22;5263;48.680;9.004;2023-05-13T11:11:23;13.60;99.90
10433;DHT22;5263;48.680;9.004;2023-05-13T11:16:24;13.60;99.90
10433;DHT22;5263;48.680;9.004;2023-05-13T11:18:51;13.60;99.90
10433;DHT22;5263;48.680;9.004;2023-05-13T11:21:17;13.50;99.90
10433;DHT22;5263;48.680;9.004;2023-05-13T11:23:51;13.50;99.90
10433;DHT22;5263;48.680;9.004;2023-05-13T11:26:16;13.60;99.90
10433;DHT22;5263;48.680;9.004;2023-05-13T11:31:49;13.40;99.90
10433;DHT22;5263;48.680;9.004;2023-05-13T11:34:18;13.40;99.90
10433;DHT22;5263;48.680;9.004;2023-05-13T11:39:28;13.50;99.90
10433;DHT22;5263;48.680;9.004;2023-05-13T11:41:54;13.10;99.90
10433;DHT22;5263;48.680;9.004;2023-05-13T11:44:26;13.00;99.90
10433;DHT22;5263;48.680;9.004;2023-05-13T11:49:33;13.20;99.90
10433;DHT22;5263;48.680;9.004;2023-05-13T11:52:00;13.10;99.90
10433;DHT22;5263;48.680;9.004;2023-05-13T11:54:25;13.10;99.90
10433;DHT22;5263;48.680;9.004;2023-05-13T11:56:52;13.20;99.90
10433;DHT22;5263;48.680;9.004;2023-05-13T11:59:18;13.10;99.90
10433;DHT22;5263;48.680;9.004;2023-05-13T12:01:44;13.10;99.90
10433;DHT22;5263;48.680;9.004;2023-05-13T12:04:10;13.20;99.90
10433;DHT22;5263;48.680;9.004;2023-05-13T12:06:42;13.10;99.90
10433;DHT22;5263;48.680;9.004;2023-05-13T12:09:10;13.30;99.90
10433;DHT22;5263;48.680;9.004;2023-05-13T12:11:36;13.40;99.90
10433;DHT22;5263;48.680;9.004;2023-05-13T12:14:02;13.40;99.90
10433;DHT22;5263;48.680;9.004;2023-05-13T12:16:28;13.50;99.90
10433;DHT22;5263;48.680;9.004;2023-05-13T12:19:04;13.40;99.90
10433;DHT22;5263;48.680;9.004;2023-05-13T12:21:31;13.30;99.90
10433;DHT22;5263;48.680;9.004;2023-05-13T12:23:57;13.30;99.90
10433;DHT22;5263;48.680;9.004;2023-05-13T12:26:23;13.20;99.90
10433;DHT22;5263;48.680;9.004;2023-05-13T12:28:56;13.00;99.90
10433;DHT22;5263;48.680;9.004;2023-05-13T12:31:22;13.20;99.90
10433;DHT22;5263;48.680;9.004;2023-05-13T12:33:48;13.80;99.90
10433;DHT22;5263;48.680;9.004;2023-05-13T12:36:22;13.70;99.90
10433;DHT22;5263;48.680;9.004;2023-05-13T12:38:57;13.80;99.90
10433;DHT22;5263;48.680;9.004;2023-05-13T12:41:27;13.60;99.90
10433;DHT22;5263;48.680;9.004;2023-05-13T12:44:07;13.30;99.90
10433;DHT22;5263;48.680;9.004;2023-05-13T12:46:33;13.40;99.90
10433;DHT22;5263;48.680;9.004;2023-05-13T12:49:00;13.50;99.90
10433;DHT22;5263;48.680;9.004;2023-05-13T12:51:27;13.70;99.90
10433;DHT22;5263;48.680;9.004;2023-05-13T12:53:54;13.60;99.90
10433;DHT22;5263;48.680;9.004;2023-05-13T12:56:24;13.70;99.90
10433;DHT22;5263;48.680;9.004;2023-05-13T12:58:53;13.70;99.90
10433;DHT22;5263;48.680;9.004;2023-05-13T13:01:19;13.80;99.90
10433;DHT22;5263;48.680;9.004;2023-05-13T13:03:45;13.80;99.90
10433;DHT22;5263;48.680;9.004;2023-05-13T13:06:12;13.90;99.90
10433;DHT22;5263;48.680;9.004;2023-05-13T13:08:38;13.70;99.90
10433;DHT22;5263;48.680;9.004;2023-05-13T13:11:04;13.80;99.90
10433;DHT22;5263;48.680;9.004;2023-05-13T13:13:30;13.70;99.90
10433;DHT22;5263;48.680;9.004;2023-05-13T13:15:57;13.50;99.90
10433;DHT22;5263;48.680;9.004;2023-05-13T13:18:22;13.80;99.90
10433;DHT22;5263;48.680;9.004;2023-05-13T13:20:50;13.60;99.90
10433;DHT22;5263;48.680;9.004;2023-05-13T13:23:16;13.60;99.90
10433;DHT22;5263;48.680;9.004;2023-05-13T13:25:42;13.80;99.90
10433;DHT22;5263;48.680;9.004;2023-05-13T13:28:08;13.70;99.90
10433;DHT22;5263;48.680;9.004;2023-05-13T13:30:33;13.70;99.90
10433;DHT22;5263;48.680;9.004;2023-05-13T13:32:59;13.40;99.90
10433;DHT22;5263;48.680;9.004;2023-05-13T13:35:25;13.30;99.90
10433;DHT22;5263;48.680;9.004;2023-05-13T13:37:50;13.50;99.90
10433;DHT22;5263;48.680;9.004;2023-05-13T13:40:16;13.70;99.90
10433;DHT22;5263;48.680;9.004;2023-05-13T13:42:43;13.60;99.90
10433;DHT22;5263;48.680;9.004;2023-05-13T13:45:10;13.70;99.90
10433;DHT22;5263;48.680;9.004;2023-05-13T13:47:35;13.90;99.90
10433;DHT22;5263;48.680;9.004;2023-05-13T13:50:01;14.30;99.90
10433;DHT22;5263;48.680;9.004;2023-05-13T13:52:27;15.00;99.90
10433;DHT22;5263;48.680;9.004;2023-05-13T13:54:53;15.80;99.90
10433;DHT22;5263;48.680;9.004;2023-05-13T13:57:19;16.10;99.90
10433;DHT22;5263;48.680;9.004;2023-05-13T13:59:44;16.90;99.90
10433;DHT22;5263;48.680;9.004;2023-05-13T14:02:10;16.40;99.90
10433;DHT22;5263;48.680;9.004;2023-05-13T14:04:36;16.60;99.90
10433;DHT22;5263;48.680;9.004;2023-05-13T14:07:01;15.80;99.90
10433;DHT22;5263;48.680;9.004;2023-05-13T14:09:27;15.50;99.90
10433;DHT22;5263;48.680;9.004;2023-05-13T14:11:53;15.50;99.90
10433;DHT22;5263;48.680;9.004;2023-05-13T14:14:19;14.80;99.90
10433;DHT22;5263;48.680;9.004;2023-05-13T14:16:45;15.00;99.90
10433;DHT22;5263;48.680;9.004;2023-05-13T14:19:10;15.00;99.90
10433;DHT22;5263;48.680;9.004;2023-05-13T14:21:36;15.10;99.90
10433;DHT22;5263;48.680;9.004;2023-05-13T14:24:02;15.20;99.90
10433;DHT22;5263;48.680;9.004;2023-05-13T14:26:28;14.50;99.90
10433;DHT22;5263;48.680;9.004;2023-05-13T14:28:54;14.20;99.90
10433;DHT22;5263;48.680;9.004;2023-05-13T14:31:21;13.80;99.90
10433;DHT22;5263;48.680;9.004;2023-05-13T14:33:46;13.70;99.90
10433;DHT22;5263;48.680;9.004;2023-05-13T14:36:12;13.30;99.90
10433;DHT22;5263;48.680;9.004;2023-05-13T14:38:43;13.20;99.90
10433;DHT22;5263;48.680;9.004;2023-05-13T14:41:09;13.30;99.90
10433;DHT22;5263;48.680;9.004;2023-05-13T14:43:35;13.60;99.90
10433;DHT22;5263;48.680;9.004;2023-05-13T14:46:00;13.80;99.90
10433;DHT22;5263;48.680;9.004;2023-05-13T14:48:26;14.00;99.90
10433;DHT22;5263;48.680;9.004;2023-05-13T14:50:51;14.20;99.90
10433;DHT22;5263;48.680;9.004;2023-05-13T14:53:18;14.30;99.90
10433;DHT22;5263;48.680;9.004;2023-05-13T14:55:44;14.40;99.90
10433;DHT22;5263;48.680;9.004;2023-05-13T14:58:09;14.40;99.90
10433;DHT22;5263;48.680;9.004;2023-05-13T15:00:35;14.20;99.90
10433;DHT22;5263;48.680;9.004;2023-05-13T15:03:05;14.40;99.90
10433;DHT22;5263;48.680;9.004;2023-05-13T15:05:31;14.10;99.90
10433;DHT22;5263;48.680;9.004;2023-05-13T15:07:57;14.40;99.90
10433;DHT22;5263;48.680;9.004;2023-05-13T15:10:24;14.70;99.90
10433;DHT22;5263;48.680;9.004;2023-05-13T15:12:49;14.30;99.90
10433;DHT22;5263;48.680;9.004;2023-05-13T15:15:15;14.70;99.90
10433;DHT22;5263;48.680;9.004;2023-05-13T15:17:41;15.10;99.90
10433;DHT22;5263;48.680;9.004;2023-05-13T15:20:07;14.80;99.90
10433;DHT22;5263;48.680;9.004;2023-05-13T15:22:32;14.90;99.90
10433;DHT22;5263;48.680;9.004;2023-05-13T15:24:58;15.30;99.90
10433;DHT22;5263;48.680;9.004;2023-05-13T15:27:26;15.30;99.90
10433;DHT22;5263;48.680;9.004;2023-05-13T15:29:52;15.30;99.90
10433;DHT22;5263;48.680;9.004;2023-05-13T15:32:18;15.60;99.90
10433;DHT22;5263;48.680;9.004;2023-05-13T15:34:43;15.60;99.90
10433;DHT22;5263;48.680;9.004;2023-05-13T15:37:09;15.80;99.90
10433;DHT22;5263;48.680;9.004;2023-05-13T15:39:35;15.60;99.90
10433;DHT22;5263;48.680;9.004;2023-05-13T15:42:00;14.60;99.90
10433;DHT22;5263;48.680;9.004;2023-05-13T15:44:26;14.70;99.90
10433;DHT22;5263;48.680;9.004;2023-05-13T15:46:52;14.90;99.90
10433;DHT22;5263;48.680;9.004;2023-05-13T15:49:17;14.60;99.90
10433;DHT22;5263;48.680;9.004;2023-05-13T15:51:43;15.00;99.90
10433;DHT22;5263;48.680;9.004;2023-05-13T15:54:09;15.20;99.90
10433;DHT22;5263;48.680;9.004;2023-05-13T15:56:34;14.90;99.90
10433;DHT22;5263;48.680;9.004;2023-05-13T15:59:00;15.00;99.90
10433;DHT22;5263;48.680;9.004;2023-05-13T16:01:26;14.90;99.90
10433;DHT22;5263;48.680;9.004;2023-05-13T16:03:51;15.00;99.90
10433;DHT22;5263;48.680;9.004;2023-05-13T16:06:17;14.90;99.90